Time;durP1;ratioP1;P1;durP2;ratioP2;P2;SDS_P1;SDS_P2;PMS_P1;PMS_P2;Temp;Humidity;BMP_temperature;BMP_pressure;BME280_temperature;BME280_humidity;BME280_pressure;Samples;Min_cycle;Max_cycle;Signal;HPM_P1;HPM_P2
2024/03/06 00:02:29;;;;;;;1999.90;999.90;;;;;;;7.14;100.00;94518.66;10324152;28;20056;-80
2024/03/06 00:07:30;;;;;;;1999.90;999.90;;;;;;;7.01;100.00;94511.09;10323662;28;20436;-79
2024/03/06 00:12:30;;;;;;;1999.90;999.90;;;;;;;6.86;100.00;94511.78;10324770;28;20038;-85
2024/03/06 00:17:31;;;;;;;1999.90;999.90;;;;;;;6.49;100.00;94515.22;10326064;28;20368;-80
2024/03/06 00:22:31;;;;;;;1999.90;999.90;;;;;;;6.48;100.00;94518.94;10322919;28;20027;-81
2024/03/06 00:27:31;;;;;;;1999.90;999.90;;;;;;;6.63;100.00;94516.41;10321028;23;20356;-78
2024/03/06 00:32:32;;;;;;;1999.90;999.90;;;;;;;6.46;100.00;94521.88;10304717;28;20121;-77
2024/03/06 00:37:32;;;;;;;1999.90;999.90;;;;;;;6.07;100.00;94516.66;10285338;28;20088;-77
2024/03/06 00:42:33;;;;;;;1999.90;999.90;;;;;;;5.96;100.00;94518.38;10303517;28;20018;-77
2024/03/06 00:47:34;;;;;;;1999.90;999.90;;;;;;;5.93;100.00;94524.22;10303534;28;20756;-77
2024/03/06 00:52:34;;;;;;;1999.90;999.90;;;;;;;6.01;100.00;94519.53;10302090;28;20549;-75
2024/03/06 00:57:35;;;;;;;1999.90;999.90;;;;;;;5.98;100.00;94515.47;10304018;28;20382;-78
2024/03/06 01:02:40;;;;;;;1999.90;999.90;;;;;;;6.05;100.00;94523.31;10301700;28;20285;-78
2024/03/06 01:07:40;;;;;;;1999.90;999.90;;;;;;;5.94;100.00;94527.66;10301058;28;20042;-77
2024/03/06 01:12:40;;;;;;;1999.90;999.90;;;;;;;5.81;100.00;94536.84;10302709;28;20022;-78
2024/03/06 01:17:41;;;;;;;1999.90;999.90;;;;;;;5.89;100.00;94536.44;10301521;28;20273;-77
2024/03/06 01:22:41;;;;;;;1999.90;999.90;;;;;;;5.77;100.00;94535.75;10302499;28;20034;-75
2024/03/06 01:27:41;;;;;;;1999.90;999.90;;;;;;;5.69;100.00;94536.16;10300842;28;20045;-77
2024/03/06 01:32:42;;;;;;;1999.90;999.90;;;;;;;5.58;100.00;94538.72;10301151;28;20110;-77
2024/03/06 01:37:42;;;;;;;1999.90;999.90;;;;;;;5.51;100.00;94537.25;10302902;28;20548;-78
2024/03/06 01:42:42;;;;;;;1999.90;999.90;;;;;;;5.47;100.00;94537.75;10301123;28;20285;-78
2024/03/06 01:47:43;;;;;;;1999.90;999.90;;;;;;;5.37;100.00;94532.31;10301224;28;20044;-77
2024/03/06 01:52:44;;;;;;;1999.90;999.90;;;;;;;5.45;100.00;94534.53;10301914;28;20084;-77
2024/03/06 01:57:44;;;;;;;1999.90;999.90;;;;;;;5.47;100.00;94531.63;10300994;28;20117;-77
2024/03/06 02:02:45;;;;;;;1999.90;999.90;;;;;;;5.41;100.00;94537.94;10283335;28;20454;-77
2024/03/06 02:07:47;;;;;;;1999.90;999.90;;;;;;;5.24;100.00;94530.75;10329427;28;20393;-77
2024/03/06 02:12:48;;;;;;;1999.90;999.90;;;;;;;5.17;100.00;94538.13;10340808;28;20554;-77
2024/03/06 02:17:49;;;;;;;1999.90;999.90;;;;;;;5.23;100.00;94539.00;10340800;28;20026;-77
2024/03/06 02:22:50;;;;;;;1999.90;999.90;;;;;;;5.29;100.00;94544.16;10340704;28;20516;-78
2024/03/06 02:27:50;;;;;;;1999.90;999.90;;;;;;;5.31;100.00;94544.72;10341271;28;20055;-76
2024/03/06 02:32:51;;;;;;;1999.90;999.90;;;;;;;5.26;100.00;94558.00;10341007;28;20025;-77
2024/03/06 02:37:51;;;;;;;1999.90;999.90;;;;;;;5.20;100.00;94561.59;10341052;28;20777;-77
2024/03/06 02:42:51;;;;;;;1999.90;999.90;;;;;;;5.11;100.00;94561.22;10349143;28;20032;-77
2024/03/06 02:47:52;;;;;;;1999.90;999.90;;;;;;;5.05;100.00;94558.72;10347975;28;20276;-77
2024/03/06 02:52:53;;;;;;;1999.90;999.90;;;;;;;4.94;100.00;94561.22;10348205;28;20091;-77
2024/03/06 02:57:53;;;;;;;1999.90;999.90;;;;;;;4.84;100.00;94562.91;10348551;28;20120;-77
2024/03/06 03:02:53;;;;;;;1999.90;999.90;;;;;;;4.81;100.00;94566.84;10347319;28;20396;-76
2024/03/06 03:07:55;;;;;;;1999.90;999.90;;;;;;;4.89;100.00;94563.78;10349048;28;20030;-78
2024/03/06 03:12:55;;;;;;;1999.90;999.90;;;;;;;4.75;100.00;94565.97;10347350;28;20481;-77
2024/03/06 03:17:56;;;;;;;1999.90;999.90;;;;;;;4.35;100.00;94569.50;10347046;28;20048;-78
2024/03/06 03:22:56;;;;;;;1999.90;999.90;;;;;;;4.16;100.00;94576.88;10349366;28;20459;-79
2024/03/06 03:27:56;;;;;;;1999.90;999.90;;;;;;;4.05;100.00;94578.53;10333124;28;20066;-80
2024/03/06 03:32:57;;;;;;;1999.90;999.90;;;;;;;4.19;100.00;94580.94;10308037;28;20030;-79
2024/03/06 03:37:57;;;;;;;1999.90;999.90;;;;;;;4.18;100.00;94579.31;10307444;28;20053;-78
2024/03/06 03:42:57;;;;;;;1999.90;999.90;;;;;;;4.25;100.00;94586.09;10307941;28;20034;-78
2024/03/06 03:47:58;;;;;;;1999.90;999.90;;;;;;;4.20;100.00;94587.84;10312223;28;20269;-79
2024/03/06 03:53:00;;;;;;;1999.90;999.90;;;;;;;4.07;100.00;94583.63;10307946;28;20398;-78
2024/03/06 03:58:01;;;;;;;1999.90;999.90;;;;;;;4.19;100.00;94589.72;10308939;28;20065;-77
2024/03/06 04:03:02;;;;;;;1999.90;999.90;;;;;;;4.21;100.00;94592.13;10308415;28;20118;-78
2024/03/06 04:08:02;;;;;;;1999.90;999.90;;;;;;;4.19;100.00;94603.00;10307438;28;20026;-77
2024/03/06 04:13:03;;;;;;;1999.90;999.90;;;;;;;4.18;100.00;94596.06;10305093;28;20022;-78
2024/03/06 04:18:03;;;;;;;1999.90;999.90;;;;;;;4.17;100.00;94609.59;10301315;28;20041;-79
2024/03/06 04:23:04;;;;;;;1999.90;999.90;;;;;;;4.01;100.00;94613.81;10301602;28;20037;-78
2024/03/06 04:28:04;;;;;;;1999.90;999.90;;;;;;;3.81;100.00;94616.84;10304504;28;20547;-77
2024/03/06 04:33:08;;;;;;;1999.90;999.90;;;;;;;3.78;100.00;94628.75;10303515;28;20508;-78
2024/03/06 04:38:08;;;;;;;1999.90;999.90;;;;;;;3.76;100.00;94622.88;10303724;28;20487;-77
2024/03/06 04:43:08;;;;;;;1999.90;999.90;;;;;;;3.71;100.00;94623.56;10303601;28;20121;-77
2024/03/06 04:48:09;;;;;;;1999.90;999.90;;;;;;;3.78;100.00;94633.25;10302983;28;20038;-78
2024/03/06 04:53:10;;;;;;;1999.90;999.90;;;;;;;3.81;100.00;94636.28;10304283;28;20278;-79
2024/03/06 04:58:11;;;;;;;1999.90;999.90;;;;;;;3.82;100.00;94635.22;10303151;28;20281;-77
2024/03/06 05:03:11;;;;;;;1999.90;999.90;;;;;;;3.73;100.00;94641.94;10301753;28;20036;-79
2024/03/06 05:08:12;;;;;;;1999.90;999.90;;;;;;;3.84;100.00;94641.13;10276331;28;20497;-78
2024/03/06 05:13:12;;;;;;;1999.90;999.90;;;;;;;3.90;100.00;94652.69;10296199;28;20026;-78
2024/03/06 05:18:12;;;;;;;1999.90;999.90;;;;;;;3.87;100.00;94647.81;10302331;28;20273;-77
2024/03/06 05:23:14;;;;;;;1999.90;999.90;;;;;;;3.88;100.00;94658.22;10301304;28;20088;-79
2024/03/06 05:28:14;;;;;;;1999.90;999.90;;;;;;;4.05;100.00;94657.53;10275146;28;20875;-78
2024/03/06 05:33:15;;;;;;;1999.90;999.90;;;;;;;4.51;100.00;94658.44;10261941;28;20092;-78
2024/03/06 05:38:15;;;;;;;1999.90;999.90;;;;;;;4.95;100.00;94652.56;10258904;28;20041;-79
2024/03/06 05:43:15;;;;;;;1999.90;999.90;;;;;;;5.21;100.00;94664.47;10257504;28;20035;-78
2024/03/06 05:48:16;;;;;;;1999.90;999.90;;;;;;;5.45;100.00;94672.31;10259778;28;20500;-77
2024/03/06 05:53:16;;;;;;;1999.90;999.90;;;;;;;5.80;100.00;94671.25;10259861;28;20041;-78
2024/03/06 05:58:16;;;;;;;1999.90;999.90;;;;;;;5.91;100.00;94670.34;10280430;28;20022;-77
2024/03/06 06:03:17;;;;;;;1999.90;999.90;;;;;;;6.11;100.00;94667.19;10290606;28;20473;-78
2024/03/06 06:08:17;;;;;;;1999.90;999.90;;;;;;;5.97;100.00;94671.22;10289292;28;20037;-78
2024/03/06 06:13:18;;;;;;;1999.90;999.90;;;;;;;6.16;100.00;94679.78;10290577;28;20265;-78
2024/03/06 06:18:18;;;;;;;1999.90;999.90;;;;;;;6.20;100.00;94682.78;10288024;28;20433;-77
2024/03/06 06:23:19;;;;;;;1999.90;999.90;;;;;;;6.23;100.00;94682.28;10287500;28;20026;-79
2024/03/06 06:28:19;;;;;;;1999.90;999.90;;;;;;;6.40;100.00;94677.69;10286835;28;20061;-77
2024/03/06 06:33:20;;;;;;;1999.90;999.90;;;;;;;6.71;100.00;94682.59;10288668;28;20265;-78
2024/03/06 06:38:21;;;;;;;1999.90;999.90;;;;;;;7.38;100.00;94677.91;10291082;28;20633;-77
2024/03/06 06:43:22;;;;;;;1999.90;999.90;;;;;;;8.20;100.00;94668.59;10289893;28;20077;-77
2024/03/06 06:48:22;;;;;;;1999.90;999.90;;;;;;;8.54;100.00;94664.78;10290141;28;20445;-78
2024/03/06 06:53:23;;;;;;;1999.90;999.90;;;;;;;8.99;100.00;94665.97;10293363;28;20030;-77
2024/03/06 06:58:23;;;;;;;1999.90;999.90;;;;;;;9.51;100.00;94674.91;10288315;28;20446;-76
2024/03/06 07:03:29;;;;;;;1999.90;999.90;;;;;;;10.06;100.00;94674.31;10289202;28;20034;-77
2024/03/06 07:08:29;;;;;;;1999.90;999.90;;;;;;;11.27;100.00;94669.84;10290250;28;20273;-77
2024/03/06 07:13:30;;;;;;;1999.90;999.90;;;;;;;11.88;100.00;94660.53;10288858;28;20030;-78
2024/03/06 07:18:30;;;;;;;1999.90;999.90;;;;;;;11.84;100.00;94659.47;10290250;28;20680;-76
2024/03/06 07:23:31;;;;;;;1999.90;999.90;;;;;;;12.34;100.00;94662.00;10289408;28;20209;-76
2024/03/06 07:28:31;;;;;;;1999.90;999.90;;;;;;;12.38;100.00;94660.34;10292996;28;20392;-76
2024/03/06 07:33:33;;;;;;;1999.90;999.90;;;;;;;12.72;99.67;94669.41;10296454;28;20277;-77
2024/03/06 07:38:34;;;;;;;1999.90;999.90;;;;;;;13.04;91.57;94657.13;10296353;28;20129;-76
2024/03/06 07:43:34;;;;;;;1999.90;999.90;;;;;;;13.23;88.74;94663.34;10295790;28;20040;-79
2024/03/06 07:48:34;;;;;;;1999.90;999.90;;;;;;;13.76;86.69;94661.50;10295372;28;20358;-79
2024/03/06 07:53:35;;;;;;;1999.90;999.90;;;;;;;13.92;81.99;94660.16;10295727;28;20032;-79
2024/03/06 07:58:35;;;;;;;1999.90;999.90;;;;;;;14.70;79.08;94662.28;10296216;28;20110;-78
2024/03/06 08:03:35;;;;;;;1999.90;999.90;;;;;;;14.75;74.93;94654.09;10294933;28;20092;-77
2024/03/06 08:08:36;;;;;;;1999.90;999.90;;;;;;;14.59;74.99;94655.47;10294754;28;20041;-77
2024/03/06 08:13:38;;;;;;;1999.90;999.90;;;;;;;14.78;75.10;94667.00;10295394;28;20303;-78
2024/03/06 08:18:38;;;;;;;1999.90;999.90;;;;;;;15.11;71.87;94658.75;10293962;28;20035;-77
2024/03/06 08:23:38;;;;;;;1999.90;999.90;;;;;;;15.49;70.33;94660.38;10294272;28;20026;-78
2024/03/06 08:28:39;;;;;;;1999.90;999.90;;;;;;;15.94;66.92;94654.19;10293983;28;20072;-77
2024/03/06 08:33:39;;;;;;;1999.90;999.90;;;;;;;15.87;67.08;94650.00;10293775;28;20489;-76
2024/03/06 08:38:40;;;;;;;1999.90;999.90;;;;;;;15.82;68.79;94652.84;10292931;28;20032;-78
2024/03/06 08:43:41;;;;;;;1999.90;999.90;;;;;;;17.39;57.83;94641.81;10294306;28;20042;-76
2024/03/06 08:48:41;;;;;;;1999.90;999.90;;;;;;;18.25;52.42;94641.28;10293418;28;20026;-78
2024/03/06 08:53:41;;;;;;;1999.90;999.90;;;;;;;18.34;51.42;94644.78;10293919;28;20583;-77
2024/03/06 08:58:42;;;;;;;1999.90;999.90;;;;;;;17.88;52.65;94640.84;10292251;28;20045;-77
2024/03/06 09:03:42;;;;;;;1999.90;999.90;;;;;;;16.25;56.79;94650.72;10292709;28;20054;-77
2024/03/06 09:08:42;;;;;;;1999.90;999.90;;;;;;;15.76;63.54;94654.03;10292475;28;20493;-77
2024/03/06 09:13:43;;;;;;;1999.90;999.90;;;;;;;15.92;62.59;94651.00;10292665;28;20029;-77
2024/03/06 09:18:43;;;;;;;1999.90;999.90;;;;;;;15.77;65.32;94650.22;10292865;28;20018;-77
2024/03/06 09:23:43;;;;;;;1999.90;999.90;;;;;;;15.39;67.91;94664.09;10291623;28;20030;-76
2024/03/06 09:28:44;;;;;;;1999.90;999.90;;;;;;;15.45;67.27;94648.56;10292098;28;20309;-75
2024/03/06 09:33:46;;;;;;;1999.90;999.90;;;;;;;15.43;65.28;94661.59;10291424;28;20101;-78
2024/03/06 09:38:46;;;;;;;1999.90;999.90;;;;;;;15.72;66.87;94642.22;10290247;28;20496;-77
2024/03/06 09:43:46;;;;;;;1999.90;999.90;;;;;;;17.29;57.52;94638.59;10291735;28;20045;-76
2024/03/06 09:48:48;;;;;;;;;;;;;;;17.03;54.56;94633.94;10290142;28;20616;-76
2024/03/06 09:53:51;;;;;;;1999.90;999.90;;;;;;;17.40;51.95;94634.44;10292077;28;20384;-76
2024/03/06 09:58:53;;;;;;;1999.90;999.90;;;;;;;17.33;51.20;94621.38;10273252;28;19975;-77
2024/03/06 10:03:54;;;;;;;1999.90;999.90;;;;;;;17.12;53.19;94620.38;10290096;28;20373;-76
2024/03/06 10:09:10;;;;;;;1999.90;999.90;;;;;;;17.53;53.90;94614.50;10290497;28;20021;-78
2024/03/06 10:14:10;;;;;;;1999.90;999.90;;;;;;;17.68;53.24;94605.06;10289360;28;20378;-76
2024/03/06 10:19:18;;;;;;;1999.90;999.90;;;;;;;18.70;49.03;94597.25;10290200;28;20040;-77
2024/03/06 10:24:28;;;;;;;1999.90;999.90;;;;;;;19.65;44.98;94596.97;10272265;28;20109;-76
2024/03/06 10:29:29;;;;;;;1999.90;999.90;;;;;;;20.01;42.86;94589.25;10289273;28;20077;-78
2024/03/06 10:34:29;;;;;;;1999.90;999.90;;;;;;;22.02;38.48;94575.53;10291773;28;20381;-77
2024/03/06 10:39:33;;;;;;;117.60;24.77;;;;;;;23.98;34.62;94565.94;10289349;28;20419;-77
2024/03/06 10:44:35;;;;;;;64.68;22.83;;;;;;;22.27;36.83;94569.91;10287787;28;20485;-77
2024/03/06 10:49:38;;;;;;;139.07;39.03;;;;;;;22.76;35.38;94555.09;10290076;28;20409;-77
2024/03/06 10:54:41;;;;;;;98.60;34.33;;;;;;;22.38;36.53;94546.34;10290877;28;20489;-75
2024/03/06 10:59:43;;;;;;;156.70;40.63;;;;;;;24.28;33.37;94532.38;10288979;28;20026;-78
2024/03/06 11:04:44;;;;;;;199.35;46.33;;;;;;;26.44;30.42;94518.69;10297239;28;20027;-77
2024/03/06 11:09:48;;;;;;;264.77;52.50;;;;;;;25.08;31.00;94512.41;10297682;28;20089;-77
2024/03/06 11:14:51;;;;;;;88.57;28.70;;;;;;;26.26;29.18;94501.19;10296839;28;20034;-77
2024/03/06 11:20:00;;;;;;;65.22;22.45;;;;;;;25.45;30.12;94491.69;10297041;28;20113;-77
2024/03/06 11:25:01;;;;;;;100.13;33.72;;;;;;;23.54;32.44;94492.16;10296033;28;20037;-77
2024/03/06 11:30:15;;;;;;;204.35;45.15;;;;;;;22.69;32.18;94495.47;10295751;28;20513;-76
2024/03/06 11:35:18;;;;;;;423.92;66.53;;;;;;;23.43;31.67;94482.91;10295816;28;20370;-76
2024/03/06 11:40:25;;;;;;;363.40;60.22;;;;;;;24.80;29.15;94474.31;10295405;28;20475;-76
2024/03/06 11:45:25;;;;;;;390.65;62.70;;;;;;;22.74;31.09;94475.19;10294717;28;20129;-76
2024/03/06 11:50:27;;;;;;;24.93;7.53;;;;;;;20.21;34.58;94467.56;10296765;28;20377;-76
2024/03/06 11:55:28;;;;;;;1.60;0.90;;;;;;;18.49;37.45;94477.47;10295556;28;20460;-77
2024/03/06 12:00:30;;;;;;;7.57;0.00;;;;;;;17.80;40.14;94468.47;10294245;28;20484;-77
2024/03/06 12:05:31;;;;;;;0.43;0.00;;;;;;;17.65;40.53;94479.88;10294704;28;20293;-77
2024/03/06 12:10:31;;;;;;;0.00;0.00;;;;;;;17.85;40.15;94470.22;10294743;28;20018;-78
2024/03/06 12:15:32;;;;;;;0.00;0.00;;;;;;;18.06;39.49;94467.63;10294084;28;20026;-77
2024/03/06 12:20:32;;;;;;;;;;;;;;;17.72;40.64;94461.16;10293677;28;20356;-78
2024/03/06 12:25:32;;;;;;;0.00;0.00;;;;;;;17.69;41.39;94459.88;10294590;28;19975;-77
2024/03/06 12:30:42;;;;;;;0.00;0.00;;;;;;;17.85;40.56;94454.72;10293024;28;20298;-78
2024/03/06 12:35:42;;;;;;;0.00;0.00;;;;;;;18.00;39.38;94447.97;10292591;28;20664;-77
2024/03/06 12:40:43;;;;;;;0.00;0.00;;;;;;;17.79;38.98;94450.59;10294200;28;20042;-78
2024/03/06 12:45:43;;;;;;;0.00;0.00;;;;;;;17.32;39.46;94445.13;10292803;28;20061;-77
2024/03/06 12:50:46;;;;;;;0.00;0.00;;;;;;;17.21;42.79;94456.31;10294132;28;20045;-77
2024/03/06 12:55:47;;;;;;;0.00;0.00;;;;;;;16.66;47.89;94454.25;10293129;28;20239;-78
2024/03/06 13:00:47;;;;;;;1.85;0.10;;;;;;;16.16;49.24;94460.84;10291689;28;20092;-76
2024/03/06 13:05:48;;;;;;;0.00;0.00;;;;;;;15.86;52.02;94452.47;10292283;28;20416;-76
2024/03/06 13:10:48;;;;;;;0.00;0.00;;;;;;;15.65;54.06;94457.63;10292553;28;20265;-78
2024/03/06 13:15:52;;;;;;;0.00;0.00;;;;;;;15.69;53.41;94462.09;10291873;28;20648;-77
2024/03/06 13:20:53;;;;;;;0.00;0.00;;;;;;;15.60;54.45;94453.16;10292238;28;20042;-77
2024/03/06 13:25:54;;;;;;;0.00;0.00;;;;;;;15.45;54.86;94469.81;10298501;28;20127;-77
2024/03/06 13:30:54;;;;;;;0.00;0.00;;;;;;;15.37;53.59;94453.19;10291091;28;20464;-77
2024/03/06 13:35:55;;;;;;;0.00;0.00;;;;;;;15.24;54.61;94461.38;10290957;28;20030;-77
2024/03/06 13:40:55;;;;;;;0.00;0.00;;;;;;;15.07;55.47;94449.34;10291454;28;20409;-77
2024/03/06 13:45:56;;;;;;;0.00;0.00;;;;;;;15.00;56.13;94460.63;10292128;28;19909;-76
2024/03/06 13:50:56;;;;;;;0.00;0.00;;;;;;;15.04;53.28;94458.88;10291884;28;20254;-77
2024/03/06 13:55:57;;;;;;;;;;;;;;;15.10;53.80;94448.75;10291104;28;20034;-77
2024/03/06 14:00:57;;;;;;;0.00;0.00;;;;;;;15.21;52.46;94450.06;10288762;28;20076;-76
2024/03/06 14:05:57;;;;;;;;;;;;;;;14.79;54.40;94454.06;10290039;28;20307;-77
2024/03/06 14:10:58;;;;;;;0.00;0.00;;;;;;;14.98;55.28;94454.69;10287169;28;20452;-77
2024/03/06 14:16:00;;;;;;;0.00;0.00;;;;;;;14.86;56.04;94452.56;10289677;28;20054;-77
2024/03/06 14:21:00;;;;;;;0.00;0.00;;;;;;;14.36;57.27;94450.66;10290143;28;20306;-76
2024/03/06 14:26:02;;;;;;;0.00;0.00;;;;;;;13.78;61.38;94448.63;10290041;28;20046;-77
2024/03/06 14:31:02;;;;;;;0.00;0.00;;;;;;;13.84;67.03;94455.53;10290020;28;20456;-77
2024/03/06 14:36:03;;;;;;;0.00;0.00;;;;;;;13.89;68.21;94454.66;10291640;28;20057;-78
2024/03/06 14:41:05;;;;;;;0.00;0.00;;;;;;;14.06;69.74;94451.31;10300277;28;20593;-78
2024/03/06 14:46:06;;;;;;;0.00;0.00;;;;;;;14.23;69.61;94456.09;10301918;28;20030;-78
2024/03/06 14:51:06;;;;;;;0.00;0.00;;;;;;;14.11;69.52;94465.53;10302628;28;20014;-78
2024/03/06 14:56:07;;;;;;;0.00;0.00;;;;;;;13.78;71.88;94456.75;10300626;28;20052;-78
2024/03/06 15:01:07;;;;;;;0.00;0.00;;;;;;;12.71;81.96;94477.16;10299357;28;20377;-79
2024/03/06 15:06:08;;;;;;;0.00;0.00;;;;;;;12.26;96.00;94476.69;10300042;28;20426;-79
2024/03/06 15:11:08;;;;;;;0.00;0.00;;;;;;;11.63;100.00;94475.81;10301514;28;20030;-79
2024/03/06 15:16:08;;;;;;;0.00;0.00;;;;;;;11.09;100.00;94489.25;10301338;28;20161;-80
2024/03/06 15:21:10;;;;;;;0.00;0.00;;;;;;;10.93;100.00;94495.81;10300613;28;21158;-77
2024/03/06 15:26:10;;;;;;;0.00;0.00;;;;;;;10.57;100.00;94498.75;10299030;28;20388;-80
2024/03/06 15:31:11;;;;;;;0.00;0.00;;;;;;;10.51;100.00;94505.25;10300120;28;20511;-79
2024/03/06 15:36:11;;;;;;;0.00;0.00;;;;;;;9.93;100.00;94503.88;10274057;28;20037;-77
2024/03/06 15:41:11;;;;;;;0.00;0.00;;;;;;;9.62;100.00;94519.28;10297537;28;20325;-78
2024/03/06 15:46:12;;;;;;;0.00;0.00;;;;;;;9.28;100.00;94526.06;10298454;28;20096;-77
2024/03/06 15:51:13;;;;;;;0.00;0.00;;;;;;;9.19;100.00;94516.94;10299214;28;20032;-77
2024/03/06 15:56:14;;;;;;;0.00;0.00;;;;;;;9.02;100.00;94525.25;10270342;28;20316;-78
2024/03/06 16:01:15;;;;;;;0.00;0.00;;;;;;;9.02;100.00;94525.25;10292320;28;20042;-77
2024/03/06 16:06:15;;;;;;;0.00;0.00;;;;;;;8.92;100.00;94526.06;10291559;28;20042;-76
2024/03/06 16:11:15;;;;;;;0.00;0.00;;;;;;;8.83;100.00;94530.34;10293921;28;20341;-78
2024/03/06 16:16:16;;;;;;;0.00;0.00;;;;;;;8.88;100.00;94530.34;10296689;28;20266;-77
2024/03/06 16:21:20;;;;;;;0.00;0.00;;;;;;;8.94;100.00;94534.63;10297834;28;20041;-79
2024/03/06 16:26:20;;;;;;;0.00;0.00;;;;;;;8.98;100.00;94535.69;10271770;28;20296;-80
2024/03/06 16:31:21;;;;;;;0.00;0.00;;;;;;;9.06;100.00;94537.84;10300127;28;20513;-79
2024/03/06 16:36:25;;;;;;;0.00;0.00;;;;;;;9.00;100.00;94543.47;10295628;28;20273;-78
2024/03/06 16:41:29;;;;;;;0.00;0.00;;;;;;;8.97;100.00;94546.69;10295873;28;20037;-78
2024/03/06 16:46:36;;;;;;;0.00;0.00;;;;;;;9.02;100.00;94547.50;10291345;28;20429;-75
2024/03/06 16:51:36;;;;;;;0.00;0.00;;;;;;;8.98;100.00;94546.44;10275679;28;20477;-76
2024/03/06 16:56:38;;;;;;;0.00;0.00;;;;;;;9.01;100.00;94555.81;10291349;28;20026;-77
2024/03/06 17:01:41;;;;;;;0.00;0.00;;;;;;;8.88;100.00;94554.47;10270458;28;20069;-75
2024/03/06 17:06:52;;;;;;;0.00;0.00;;;;;;;8.85;100.00;94558.47;10287244;28;20034;-74
2024/03/06 17:12:16;;;;;;;0.00;0.00;;;;;;;8.91;100.00;94558.50;10289983;28;20112;-77
2024/03/06 17:17:38;;;;;;;0.00;0.00;;;;;;;8.93;100.00;94554.47;10272875;28;20076;-77
2024/03/06 17:23:22;;;;;;;0.00;0.00;;;;;;;9.01;100.00;94564.66;10272023;28;20766;-78
2024/03/06 17:28:40;;;;;;;;;;;;;;;;;;;;;
2024/03/06 17:33:40;;;;;;;0.00;0.00;;;;;;;9.05;100.00;94557.69;10286657;28;20030;-76
2024/03/06 17:38:42;;;;;;;19.48;0.32;;;;;;;9.12;100.00;94551.25;10291957;28;20042;-74
2024/03/06 17:43:44;;;;;;;0.00;0.00;;;;;;;8.98;100.00;94562.50;10288760;28;20121;-77
2024/03/06 17:48:45;;;;;;;0.00;0.00;;;;;;;9.12;100.00;94570.03;10270442;28;20466;-79
2024/03/06 17:53:45;;;;;;;0.00;0.00;;;;;;;9.18;100.00;94583.19;10285998;28;20022;-77
2024/03/06 17:58:46;;;;;;;0.00;0.00;;;;;;;9.32;100.00;94582.63;10286285;28;20022;-77
2024/03/06 18:03:50;;;;;;;0.00;0.00;;;;;;;9.33;100.00;94579.66;10285262;28;20076;-74
2024/03/06 18:08:51;;;;;;;0.00;0.00;;;;;;;9.39;100.00;94575.94;10288751;28;20030;-78
2024/03/06 18:13:54;;;;;;;0.00;0.00;;;;;;;9.52;100.00;94581.81;10289107;28;20046;-76
2024/03/06 18:18:54;;;;;;;0.00;0.00;;;;;;;9.34;100.00;94580.50;10288596;28;20030;-82
2024/03/06 18:23:55;;;;;;;0.00;0.00;;;;;;;9.26;100.00;94584.50;10291656;28;20096;-79
2024/03/06 18:28:56;;;;;;;0.08;0.00;;;;;;;9.32;100.00;94578.09;10289080;28;20445;-80
2024/03/06 18:33:56;;;;;;;0.00;0.00;;;;;;;9.39;100.00;94573.25;10266816;28;20034;-82
2024/03/06 18:38:57;;;;;;;2.67;0.03;;;;;;;9.26;100.00;94583.72;10296472;28;20026;-83
2024/03/06 18:43:58;;;;;;;1.20;0.00;;;;;;;8.96;100.00;94579.91;10267560;28;20058;-82
2024/03/06 18:48:59;;;;;;;0.00;0.00;;;;;;;8.97;100.00;94576.19;10281829;28;20124;-81
2024/03/06 18:54:06;;;;;;;0.00;0.00;;;;;;;8.77;100.00;94569.72;10275950;28;20438;-84
2024/03/06 18:59:06;;;;;;;0.00;0.00;;;;;;;8.66;100.00;94573.44;10278561;28;20599;-77
2024/03/06 19:04:09;;;;;;;0.00;0.00;;;;;;;8.80;100.00;94581.78;10294799;28;20027;-81
2024/03/06 19:09:10;;;;;;;0.00;0.00;;;;;;;8.76;100.00;94581.50;10297329;28;20073;-83
2024/03/06 19:14:10;;;;;;;0.28;0.00;;;;;;;8.70;100.00;94578.00;10303303;28;20509;-77
2024/03/06 19:19:11;;;;;;;0.00;0.00;;;;;;;8.70;100.00;94579.91;10295884;28;20034;-78
2024/03/06 19:24:11;;;;;;;0.00;0.00;;;;;;;8.91;100.00;94580.72;10302579;28;20291;-79
2024/03/06 19:29:12;;;;;;;0.00;0.00;;;;;;;9.05;100.00;94579.13;10306957;28;20747;-79
2024/03/06 19:34:13;;;;;;;0.00;0.00;;;;;;;9.12;100.00;94589.59;10306320;28;20408;-79
2024/03/06 19:39:14;;;;;;;0.00;0.00;;;;;;;9.19;100.00;94589.34;10305530;28;20018;-78
2024/03/06 19:44:14;;;;;;;0.00;0.00;;;;;;;9.27;100.00;94582.66;10306943;28;20366;-81
2024/03/06 19:49:15;;;;;;;0.00;0.00;;;;;;;9.32;100.00;94588.00;10305587;28;20089;-79
2024/03/06 19:54:16;;;;;;;0.00;0.00;;;;;;;9.31;100.00;94586.41;10305152;28;20048;-78
2024/03/06 19:59:16;;;;;;;0.00;0.00;;;;;;;9.29;100.00;94583.97;10301067;28;20040;-75
2024/03/06 20:04:16;;;;;;;0.00;0.00;;;;;;;9.29;100.00;94583.97;10294726;28;20751;-76
2024/03/06 20:09:17;;;;;;;0.00;0.00;;;;;;;9.33;100.00;94582.34;10263179;28;20784;-75
2024/03/06 20:14:17;;;;;;;0.00;0.00;;;;;;;9.34;100.00;94577.81;10265008;28;20482;-76
2024/03/06 20:19:18;;;;;;;0.00;0.00;;;;;;;9.29;100.00;94578.59;10248568;28;20089;-75
2024/03/06 20:24:18;;;;;;;0.00;0.00;;;;;;;9.09;100.00;94575.94;10265827;28;20490;-75
2024/03/06 20:29:19;;;;;;;0.00;0.00;;;;;;;8.96;100.00;94570.03;10248693;28;20117;-76
2024/03/06 20:34:19;;;;;;;0.00;0.00;;;;;;;8.89;100.00;94575.63;10265445;28;20035;-75
2024/03/06 20:39:21;;;;;;;0.00;0.00;;;;;;;8.86;100.00;94573.50;10265172;28;20027;-76
2024/03/06 20:44:22;;;;;;;0.00;0.00;;;;;;;8.66;100.00;94578.81;10265641;28;20286;-75
2024/03/06 20:49:22;;;;;;;0.00;0.00;;;;;;;8.62;100.00;94580.41;10248509;28;20026;-76
2024/03/06 20:54:22;;;;;;;0.00;0.00;;;;;;;8.61;100.00;94576.94;10282678;28;20262;-76
2024/03/06 20:59:23;;;;;;;0.00;0.00;;;;;;;8.67;100.00;94572.38;10305720;28;20714;-77
2024/03/06 21:04:24;;;;;;;0.00;0.00;;;;;;;8.65;100.00;94569.97;10305081;28;20093;-74
2024/03/06 21:09:24;;;;;;;0.00;0.00;;;;;;;8.58;100.00;94574.75;10304926;28;20098;-76
2024/03/06 21:14:24;;;;;;;0.00;0.00;;;;;;;8.60;100.00;94567.28;10304614;28;20027;-76
2024/03/06 21:19:25;;;;;;;0.00;0.00;;;;;;;8.57;100.00;94567.81;10304325;28;20057;-77
2024/03/06 21:24:26;;;;;;;0.00;0.00;;;;;;;8.60;100.00;94567.28;10303609;28;20304;-76
2024/03/06 21:29:27;;;;;;;0.00;0.00;;;;;;;8.55;100.00;94575.28;10303898;28;20084;-76
2024/03/06 21:34:27;;;;;;;0.00;0.00;;;;;;;8.60;100.00;94567.28;10303426;28;20573;-77
2024/03/06 21:39:27;;;;;;;0.00;0.00;;;;;;;8.71;100.00;94574.25;10304185;28;20764;-74
2024/03/06 21:44:28;;;;;;;;;;;;;;;8.79;100.00;94572.97;10301748;28;20349;-76
2024/03/06 21:49:34;;;;;;;0.00;0.00;;;;;;;8.88;100.00;94579.38;10302244;28;19967;-75
2024/03/06 21:54:34;;;;;;;;;;;;;;;9.03;100.00;94577.81;10299760;28;20244;-75
2024/03/06 21:59:34;;;;;;;;;;;;;;;9.03;100.00;94572.44;10300938;28;20431;-76
2024/03/06 22:04:35;;;;;;;0.00;0.00;;;;;;;8.84;100.00;94566.78;10303109;28;19924;-77
2024/03/06 22:09:37;;;;;;;0.00;0.00;;;;;;;8.56;100.00;94571.56;10302585;28;20090;-76
2024/03/06 22:14:42;;;;;;;0.00;0.00;;;;;;;8.23;100.00;94573.56;10285365;28;20041;-76
2024/03/06 22:19:42;;;;;;;0.00;0.00;;;;;;;8.20;100.00;94569.56;10302230;28;20075;-76
2024/03/06 22:24:42;;;;;;;0.00;0.00;;;;;;;8.07;100.00;94572.69;10301647;28;20473;-75
2024/03/06 22:29:43;;;;;;;0.00;0.00;;;;;;;8.19;100.00;94573.28;10301686;28;20404;-76
2024/03/06 22:34:43;;;;;;;0.00;0.00;;;;;;;8.27;100.00;94573.84;10311318;23;20009;-75
2024/03/06 22:39:44;;;;;;;;;;;;;;;8.37;100.00;94571.19;10327360;28;20032;-79
2024/03/06 22:44:44;;;;;;;0.00;0.00;;;;;;;8.27;100.00;94574.63;10335318;28;19928;-79
2024/03/06 22:49:45;;;;;;;0.00;0.00;;;;;;;8.31;100.00;94573.06;10307683;28;20515;-84